Time;durP1;ratioP1;P1;durP2;ratioP2;P2;SDS_P1;SDS_P2;PMS_P1;PMS_P2;Temp;Humidity;BMP_temperature;BMP_pressure;BME280_temperature;BME280_humidity;BME280_pressure;Samples;Min_cycle;Max_cycle;Signal;HPM_P1;HPM_P2
2022/08/05 00:01:19;;;;;;;6.22;2.60;;;;;;;18.51;89.67;101245.31;4991005;28;20170;-45
2022/08/05 00:03:46;;;;;;;4.10;2.50;;;;;;;18.51;89.12;101237.16;4990308;28;20537;-46
2022/08/05 00:06:12;;;;;;;6.43;2.63;;;;;;;18.56;88.82;101232.31;4990639;28;20162;-47
2022/08/05 00:08:38;;;;;;;4.05;2.42;;;;;;;18.70;88.48;101239.56;4990074;28;20174;-46
2022/08/05 00:11:08;;;;;;;2.75;2.30;;;;;;;18.58;88.00;101240.34;4990617;28;20173;-46
2022/08/05 00:13:36;;;;;;;5.53;2.63;;;;;;;18.35;88.06;101242.72;4990584;28;20236;-50
2022/08/05 00:16:03;;;;;;;3.95;2.20;;;;;;;18.43;87.88;101253.06;4989190;28;20174;-49
2022/08/05 00:18:28;;;;;;;5.82;2.40;;;;;;;18.45;88.18;101257.41;4990533;28;20265;-50
2022/08/05 00:20:54;;;;;;;3.15;2.33;;;;;;;18.50;88.21;101259.88;4990564;28;20264;-49
2022/08/05 00:23:21;;;;;;;4.03;2.00;;;;;;;18.47;87.79;101255.47;4989568;28;20205;-50
2022/08/05 00:25:47;;;;;;;3.65;2.15;;;;;;;18.39;87.99;101257.84;4993509;28;20165;-50
2022/08/05 00:28:13;;;;;;;3.63;2.00;;;;;;;18.25;87.95;101266.84;4993852;28;20184;-49
2022/08/05 00:30:39;;;;;;;3.30;2.50;;;;;;;18.36;87.98;101258.00;4993867;28;20181;-48
2022/08/05 00:33:04;;;;;;;5.35;2.10;;;;;;;18.20;87.89;101266.28;4992760;28;20358;-49
2022/08/05 00:35:29;;;;;;;4.05;2.25;;;;;;;18.23;87.90;101267.91;4994076;28;20248;-50
2022/08/05 00:37:55;;;;;;;4.45;2.33;;;;;;;18.13;87.53;101270.34;4993964;28;20210;-50
2022/08/05 00:40:23;;;;;;;7.15;2.83;;;;;;;17.95;87.29;101290.47;4993512;28;20174;-49
2022/08/05 00:42:48;;;;;;;2.88;2.10;;;;;;;17.91;87.24;101281.66;4993666;28;20205;-49
2022/08/05 00:45:14;;;;;;;4.45;2.00;;;;;;;18.00;86.69;101275.66;4991351;28;20173;-50
2022/08/05 00:47:40;;;;;;;6.55;2.08;;;;;;;17.95;86.38;101285.03;4993614;28;20181;-48
2022/08/05 00:50:06;;;;;;;3.10;1.98;;;;;;;17.89;86.55;101283.59;4993367;28;20653;-47
2022/08/05 00:52:32;;;;;;;2.83;1.80;;;;;;;17.81;86.34;101291.28;4993717;28;20355;-50
2022/08/05 00:54:57;;;;;;;5.63;2.22;;;;;;;17.83;85.99;101305.66;4993149;28;20235;-50
2022/08/05 00:57:23;;;;;;;4.63;2.33;;;;;;;17.57;86.18;101312.59;4991741;28;20280;-49
2022/08/05 00:59:48;;;;;;;6.00;2.65;;;;;;;17.43;87.23;101327.84;4993187;28;20252;-51
2022/08/05 01:02:14;;;;;;;2.90;1.80;;;;;;;17.51;87.25;101327.38;4993397;28;20209;-50
2022/08/05 01:04:39;;;;;;;8.68;2.33;;;;;;;17.43;87.49;101333.28;4992873;28;20256;-50
2022/08/05 01:07:05;;;;;;;6.10;2.35;;;;;;;17.58;87.41;101338.72;4993089;28;20248;-50
2022/08/05 01:09:31;;;;;;;3.75;1.70;;;;;;;17.53;87.36;101339.00;4991780;28;20176;-50
2022/08/05 01:12:01;;;;;;;6.15;2.00;;;;;;;17.33;87.91;101348.31;4993403;28;20208;-51
2022/08/05 01:14:40;;;;;;;5.50;2.05;;;;;;;17.33;88.23;101356.44;4992080;28;20182;-50
2022/08/05 01:17:20;;;;;;;4.45;1.90;;;;;;;17.41;87.92;101356.00;4992985;28;20279;-51
2022/08/05 01:20:05;;;;;;;9.43;2.22;;;;;;;17.34;88.33;101358.19;4992749;28;20591;-50
2022/08/05 01:22:57;;;;;;;5.78;2.50;;;;;;;17.11;88.62;101348.69;4991686;28;20201;-51
2022/08/05 01:25:41;;;;;;;5.65;2.22;;;;;;;17.52;88.88;101358.09;4992587;28;20253;-49
2022/08/05 01:28:23;;;;;;;5.57;2.22;;;;;;;17.27;88.34;101345.94;4992896;28;20276;-50
2022/08/05 01:31:08;;;;;;;4.15;2.13;;;;;;;17.34;88.70;101352.78;4992722;28;20183;-50
2022/08/05 01:33:41;;;;;;;4.53;2.45;;;;;;;17.17;89.40;101352.88;4991971;28;20181;-51
2022/08/05 01:36:14;;;;;;;8.20;2.55;;;;;;;16.91;90.45;101328.16;4991769;28;20224;-50
2022/08/05 01:38:41;;;;;;;4.65;2.42;;;;;;;16.92;90.63;101315.50;4992442;28;20245;-49
2022/08/05 01:41:07;;;;;;;5.47;2.60;;;;;;;17.09;90.49;101318.97;4992452;28;20174;-51
2022/08/05 01:43:35;;;;;;;3.85;2.25;;;;;;;17.00;90.76;101319.50;4990500;28;20214;-52
2022/08/05 01:46:01;;;;;;;6.63;2.28;;;;;;;17.00;91.02;101332.19;4992605;28;20537;-51
2022/08/05 01:48:30;;;;;;;4.90;2.65;;;;;;;17.02;90.94;101338.38;4987978;28;20736;-48
2022/08/05 01:50:56;;;;;;;3.33;2.50;;;;;;;17.01;91.21;101331.19;4992148;28;20173;-52
2022/08/05 01:53:24;;;;;;;5.80;2.15;;;;;;;16.90;91.58;101331.81;4990390;28;20892;-50
2022/08/05 01:55:53;;;;;;;6.10;2.58;;;;;;;16.86;91.98;101323.00;4989549;28;20194;-49
2022/08/05 01:58:22;;;;;;;3.35;2.55;;;;;;;16.85;92.64;101306.84;4985732;28;20269;-47
2022/08/05 02:00:50;;;;;;;4.82;2.47;;;;;;;16.84;93.05;101295.16;4972591;28;20197;-49
2022/08/05 02:03:30;;;;;;;3.42;2.67;;;;;;;16.77;93.25;101285.63;4972354;28;20198;-50
2022/08/05 02:05:56;;;;;;;4.40;2.92;;;;;;;16.89;93.00;101263.28;4972392;28;20944;-52
2022/08/05 02:08:22;;;;;;;7.82;3.22;;;;;;;16.69;93.20;101258.13;4972980;28;20194;-51
2022/08/05 02:10:52;;;;;;;8.38;2.92;;;;;;;16.88;93.12;101268.81;4972180;28;20205;-50
2022/08/05 02:13:34;;;;;;;5.70;2.78;;;;;;;16.57;93.51;101253.41;4971934;28;20233;-49
2022/08/05 02:16:28;;;;;;;5.03;3.20;;;;;;;16.43;94.28;101249.63;4971018;28;20604;-49
2022/08/05 02:19:08;;;;;;;7.07;3.40;;;;;;;16.34;95.23;101238.47;4971782;28;20194;-48
2022/08/05 02:21:41;;;;;;;7.03;3.83;;;;;;;16.24;96.05;101227.28;4972123;28;20205;-48
2022/08/05 02:24:10;;;;;;;9.35;3.58;;;;;;;16.34;96.43;101215.00;4970115;28;20201;-48
2022/08/05 02:26:47;;;;;;;8.18;3.80;;;;;;;16.32;97.06;101203.41;4972094;28;20676;-49
2022/08/05 02:29:18;;;;;;;4.85;3.45;;;;;;;16.22;97.63;101207.56;4972335;28;20257;-49
2022/08/05 02:31:45;;;;;;;10.30;3.83;;;;;;;16.24;98.24;101200.25;4972223;28;20202;-47
2022/08/05 02:34:11;;;;;;;6.22;3.83;;;;;;;16.33;98.65;101193.44;4971315;28;20190;-49
2022/08/05 02:36:51;;;;;;;6.53;3.70;;;;;;;16.26;99.01;101171.28;4972313;28;20202;-49
2022/08/05 02:39:18;;;;;;;9.95;4.25;;;;;;;16.24;99.36;101173.22;4970814;28;20173;-49
2022/08/05 02:41:46;;;;;;;10.27;4.10;;;;;;;16.19;100.00;101197.81;4971807;28;20216;-48
2022/08/05 02:44:13;;;;;;;7.28;4.35;;;;;;;16.22;100.00;101203.06;4971715;28;20255;-48
2022/08/05 02:46:40;;;;;;;10.70;4.40;;;;;;;16.30;100.00;101209.84;4970743;28;20264;-49
2022/08/05 02:49:06;;;;;;;6.53;3.88;;;;;;;16.38;100.00;101194.94;4971781;28;20276;-50
2022/08/05 02:51:36;;;;;;;5.50;3.60;;;;;;;16.43;100.00;101189.28;4971548;28;20198;-51
2022/08/05 02:54:01;;;;;;;9.35;3.78;;;;;;;16.39;100.00;101190.41;4971259;28;20193;-50
2022/08/05 02:56:28;;;;;;;6.78;3.30;;;;;;;16.48;100.00;101174.50;4971570;28;20217;-49
2022/08/05 02:58:54;;;;;;;10.88;4.18;;;;;;;16.39;100.00;101160.66;4971438;28;20213;-50
2022/08/05 03:01:23;;;;;;;10.48;3.90;;;;;;;16.35;100.00;101159.09;4971916;28;20209;-51
2022/08/05 03:03:53;;;;;;;8.35;3.38;;;;;;;16.45;100.00;101173.84;4971238;28;20174;-52
2022/08/05 03:06:19;;;;;;;8.80;3.72;;;;;;;16.59;100.00;101184.72;4971433;28;20564;-53
2022/08/05 03:08:46;;;;;;;7.20;3.60;;;;;;;16.68;100.00;101197.72;4971332;28;20209;-51
2022/08/05 03:11:18;;;;;;;6.13;3.70;;;;;;;16.77;100.00;101192.72;4971678;28;20301;-50
2022/08/05 03:13:43;;;;;;;7.57;4.30;;;;;;;16.42;100.00;101180.28;4970979;28;20178;-51
2022/08/05 03:16:09;;;;;;;7.75;3.50;;;;;;;16.38;100.00;101158.94;4971104;28;20229;-52
2022/08/05 03:18:34;;;;;;;7.90;4.20;;;;;;;16.23;100.00;101139.03;4971387;28;20192;-51
2022/08/05 03:21:00;;;;;;;6.82;4.20;;;;;;;16.27;100.00;101156.84;4971151;28;20273;-50
2022/08/05 03:23:26;;;;;;;8.73;4.05;;;;;;;16.30;100.00;101145.84;4970991;28;20182;-50
2022/08/05 03:25:51;;;;;;;13.25;4.55;;;;;;;16.33;100.00;101142.06;4971143;28;20617;-52
2022/08/05 03:28:17;;;;;;;9.38;4.43;;;;;;;16.32;100.00;101138.50;4971511;28;20561;-51
2022/08/05 03:30:43;;;;;;;6.35;4.10;;;;;;;16.41;100.00;101167.72;4971499;28;20178;-52
2022/08/05 03:33:09;;;;;;;11.52;4.28;;;;;;;16.42;100.00;101174.00;4970300;28;20249;-51
2022/08/05 03:35:35;;;;;;;10.05;4.40;;;;;;;16.48;100.00;101192.56;4970047;28;20186;-53
2022/08/05 03:38:01;;;;;;;6.22;3.50;;;;;;;16.55;100.00;101212.94;4953638;28;20308;-52
2022/08/05 03:40:28;;;;;;;7.43;3.53;;;;;;;16.72;100.00;101230.00;4971424;28;20265;-49
2022/08/05 03:42:53;;;;;;;9.48;3.50;;;;;;;16.81;100.00;101256.56;4970493;28;20198;-53
2022/08/05 03:45:19;;;;;;;5.25;3.53;;;;;;;16.82;100.00;101285.41;4969561;28;20559;-52
2022/08/05 03:47:45;;;;;;;5.80;2.75;;;;;;;16.73;100.00;101305.69;4977370;28;20211;-52
2022/08/05 03:50:11;;;;;;;6.65;2.67;;;;;;;16.75;100.00;101300.16;4982878;28;20232;-53
2022/08/05 03:53:03;;;;;;;7.78;3.20;;;;;;;16.77;100.00;101299.16;4971373;28;20210;-50
2022/08/05 03:55:36;;;;;;;9.27;3.20;;;;;;;16.85;100.00;101280.66;4971312;28;20221;-48
2022/08/05 03:58:03;;;;;;;8.68;3.28;;;;;;;16.78;100.00;101284.66;4970787;28;20213;-50
2022/08/05 04:00:31;;;;;;;3.63;2.40;;;;;;;16.93;100.00;101288.34;4973346;28;20253;-51
2022/08/05 04:03:02;;;;;;;9.20;3.30;;;;;;;16.86;100.00;101286.97;4973129;28;20233;-50
2022/08/05 04:05:31;;;;;;;5.90;3.15;;;;;;;17.00;100.00;101278.91;4981139;28;20708;-47
2022/08/05 04:07:58;;;;;;;7.10;2.90;;;;;;;16.99;100.00;101260.94;4978819;28;20193;-48
2022/08/05 04:10:27;;;;;;;6.43;2.50;;;;;;;17.02;99.53;101252.63;4974382;28;20182;-50
2022/08/05 04:12:52;;;;;;;5.72;2.75;;;;;;;16.92;99.20;101234.28;4973868;28;20205;-47
2022/08/05 04:15:18;;;;;;;6.82;3.10;;;;;;;16.87;99.30;101253.50;4973990;28;20545;-47
2022/08/05 04:17:44;;;;;;;9.57;3.40;;;;;;;16.97;99.23;101259.28;4972825;28;20283;-49
2022/08/05 04:20:17;;;;;;;5.97;2.90;;;;;;;16.91;98.80;101233.44;4974394;28;20178;-47
2022/08/05 04:22:43;;;;;;;4.68;2.58;;;;;;;16.93;99.19;101239.63;4973984;28;20193;-47
2022/08/05 04:25:09;;;;;;;5.63;3.05;;;;;;;16.99;99.36;101239.28;4973359;28;20272;-47
2022/08/05 04:27:34;;;;;;;7.38;3.03;;;;;;;17.02;99.33;101254.47;4974091;28;20562;-47
2022/08/05 04:30:00;;;;;;;4.63;2.88;;;;;;;16.84;99.28;101257.28;4973792;28;20170;-50
2022/08/05 04:32:25;;;;;;;6.57;3.03;;;;;;;16.69;99.76;101255.41;4985397;28;20203;-48
2022/08/05 04:34:50;;;;;;;5.78;3.05;;;;;;;16.79;100.00;101261.16;4992609;28;20653;-47
2022/08/05 04:37:16;;;;;;;9.73;3.20;;;;;;;16.84;100.00;101261.81;4993321;28;20676;-49
2022/08/05 04:39:41;;;;;;;6.25;3.08;;;;;;;16.58;100.00;101258.72;4993229;28;20530;-47
2022/08/05 04:42:08;;;;;;;5.47;3.25;;;;;;;16.52;100.00;101269.03;4992873;28;20213;-47
2022/08/05 04:44:33;;;;;;;4.95;2.92;;;;;;;16.60;100.00;101266.75;4991405;28;20173;-47
2022/08/05 04:46:59;;;;;;;8.70;3.58;;;;;;;16.66;100.00;101270.00;4993226;28;20177;-47
2022/08/05 04:49:26;;;;;;;11.43;3.80;;;;;;;16.45;100.00;101252.25;4993322;28;20189;-47
2022/08/05 04:51:51;;;;;;;9.50;3.80;;;;;;;16.43;100.00;101237.94;4993074;28;20704;-47
2022/08/05 04:54:18;;;;;;;8.35;3.47;;;;;;;16.50;100.00;101243.88;4992609;28;20181;-48
2022/08/05 04:56:44;;;;;;;7.40;3.30;;;;;;;16.46;100.00;101251.28;4992892;28;20592;-47
2022/08/05 04:59:11;;;;;;;6.20;3.28;;;;;;;16.44;100.00;101264.94;4993449;28;20181;-50
2022/08/05 05:01:36;;;;;;;4.70;2.90;;;;;;;16.24;100.00;101267.84;4993391;28;20201;-44
2022/08/05 05:04:02;;;;;;;5.00;2.72;;;;;;;16.37;100.00;101266.19;4992631;28;20519;-52
2022/08/05 05:06:27;;;;;;;5.07;2.83;;;;;;;16.30;100.00;101248.59;4993364;28;20181;-48
2022/08/05 05:08:53;;;;;;;8.35;3.22;;;;;;;16.35;100.00;101261.84;4992937;28;20181;-47
2022/08/05 05:11:18;;;;;;;5.30;2.67;;;;;;;16.35;99.83;101262.72;4992812;28;20534;-46
2022/08/05 05:13:44;;;;;;;8.02;2.63;;;;;;;16.24;99.66;101266.00;4992682;28;20177;-46
2022/08/05 05:16:09;;;;;;;5.00;2.28;;;;;;;16.34;99.45;101285.31;4992839;28;20645;-46
2022/08/05 05:18:35;;;;;;;5.43;2.40;;;;;;;16.28;99.11;101291.91;4992994;28;20177;-47
2022/08/05 05:21:01;;;;;;;6.03;2.30;;;;;;;16.30;99.23;101315.31;4992023;28;20177;-48
2022/08/05 05:23:26;;;;;;;7.50;2.40;;;;;;;16.26;99.27;101304.66;4992300;28;20513;-48
2022/08/05 05:25:52;;;;;;;5.38;2.00;;;;;;;16.33;98.87;101299.78;4991647;28;20181;-49
2022/08/05 05:28:17;;;;;;;9.95;2.35;;;;;;;16.39;98.04;101296.75;4992529;28;20598;-49
2022/08/05 05:30:43;;;;;;;4.40;2.28;;;;;;;16.35;97.83;101308.69;4992834;28;20576;-48
2022/08/05 05:33:08;;;;;;;7.07;2.55;;;;;;;16.32;97.72;101303.44;4974643;28;20210;-47
2022/08/05 05:35:34;;;;;;;5.28;1.83;;;;;;;16.39;97.53;101304.84;4973181;28;20209;-49
2022/08/05 05:38:05;;;;;;;4.88;1.42;;;;;;;16.45;97.00;101314.47;4972789;28;20198;-47
2022/08/05 05:40:31;;;;;;;6.88;2.22;;;;;;;16.39;96.84;101317.50;4973245;28;20166;-48
2022/08/05 05:42:57;;;;;;;2.88;2.03;;;;;;;16.33;97.04;101309.72;4972514;28;20253;-48
2022/08/05 05:45:22;;;;;;;4.85;1.92;;;;;;;16.49;96.76;101310.66;4973067;28;20339;-48
2022/08/05 05:47:48;;;;;;;3.90;1.70;;;;;;;16.60;95.82;101313.63;4973082;28;20277;-48
2022/08/05 05:50:16;;;;;;;4.47;1.80;;;;;;;16.46;95.16;101311.69;4972583;28;20166;-47
2022/08/05 05:52:42;;;;;;;7.35;2.10;;;;;;;16.45;95.75;101309.94;4972536;28;20214;-46
2022/08/05 05:55:10;;;;;;;4.63;2.13;;;;;;;16.52;95.52;101312.31;4971961;28;20189;-48
2022/08/05 05:57:37;;;;;;;6.22;1.65;;;;;;;16.31;95.27;101309.84;4972551;28;20677;-49
2022/08/05 06:00:08;;;;;;;5.72;1.80;;;;;;;16.69;95.21;101306.81;4972611;28;20178;-48
2022/08/05 06:02:43;;;;;;;3.45;1.98;;;;;;;16.72;94.39;101313.88;4972293;28;20208;-48
2022/08/05 06:05:11;;;;;;;7.95;1.90;;;;;;;16.68;94.41;101329.41;4971567;28;20186;-48
2022/08/05 06:07:37;;;;;;;6.13;2.13;;;;;;;16.51;94.53;101322.25;4970878;28;20265;-48
2022/08/05 06:10:04;;;;;;;2.90;1.90;;;;;;;16.78;94.72;101327.94;4972125;28;20178;-47
2022/08/05 06:12:29;;;;;;;4.93;1.75;;;;;;;16.82;94.46;101328.69;4972115;28;20221;-50
2022/08/05 06:14:55;;;;;;;4.30;2.00;;;;;;;16.83;94.24;101338.53;4971779;28;20541;-48
2022/08/05 06:17:20;;;;;;;5.28;1.67;;;;;;;16.77;94.26;101337.03;4972316;28;20209;-47
2022/08/05 06:19:47;;;;;;;6.15;1.88;;;;;;;16.60;94.43;101323.56;4972022;28;20524;-48
2022/08/05 06:22:22;;;;;;;2.75;1.83;;;;;;;16.69;94.54;101325.75;4971553;28;20206;-48
2022/08/05 06:24:48;;;;;;;4.30;1.70;;;;;;;16.66;94.32;101323.22;4971467;28;20254;-49
2022/08/05 06:27:13;;;;;;;4.22;1.90;;;;;;;16.64;94.81;101315.19;4971125;28;20190;-47
2022/08/05 06:29:39;;;;;;;6.32;1.90;;;;;;;16.87;94.87;101308.50;4969614;28;20236;-48
2022/08/05 06:32:04;;;;;;;5.82;1.83;;;;;;;17.05;94.36;101309.31;4979527;28;20231;-48
2022/08/05 06:34:30;;;;;;;3.88;2.08;;;;;;;16.84;93.75;101308.69;4981504;28;20200;-49
2022/08/05 06:36:55;;;;;;;6.68;1.85;;;;;;;16.95;94.20;101309.94;4972001;28;20280;-46
2022/08/05 06:39:20;;;;;;;4.90;1.88;;;;;;;17.00;93.99;101322.22;4971824;28;20166;-47
2022/08/05 06:41:46;;;;;;;9.80;1.92;;;;;;;16.89;93.21;101311.13;4971765;28;20204;-47
2022/08/05 06:44:11;;;;;;;5.32;1.90;;;;;;;16.86;94.11;101320.31;4970272;28;20186;-47
2022/08/05 06:46:37;;;;;;;8.82;2.30;;;;;;;16.96;94.56;101312.53;4971839;28;20178;-48
2022/08/05 06:49:02;;;;;;;6.07;1.98;;;;;;;17.15;93.89;101309.63;4970736;28;20268;-49
2022/08/05 06:51:28;;;;;;;15.23;2.53;;;;;;;17.01;93.49;101301.44;4971332;28;20241;-48
2022/08/05 06:53:54;;;;;;;6.07;1.90;;;;;;;17.15;93.43;101306.94;4970996;28;20170;-48
2022/08/05 06:56:19;;;;;;;3.47;1.63;;;;;;;17.27;92.75;101327.88;4971744;28;20181;-49
2022/08/05 06:58:44;;;;;;;4.57;1.80;;;;;;;17.32;92.30;101334.84;4971499;28;20166;-47
2022/08/05 07:01:10;;;;;;;5.55;1.77;;;;;;;17.11;92.39;101334.28;4971538;28;20190;-49
2022/08/05 07:03:35;;;;;;;4.45;1.85;;;;;;;17.17;92.96;101345.63;4970919;28;20178;-49
2022/08/05 07:06:03;;;;;;;4.53;2.00;;;;;;;17.16;93.07;101338.44;4971255;28;20205;-50
2022/08/05 07:08:29;;;;;;;4.15;1.70;;;;;;;17.37;92.33;101347.16;4971571;28;20182;-49
2022/08/05 07:10:54;;;;;;;5.60;1.50;;;;;;;17.37;91.17;101330.91;4971569;28;20315;-49
2022/08/05 07:18:52;;;;;;;8.82;2.08;;;;;;;17.28;91.32;101351.28;4971388;28;20602;-48
2022/08/05 07:21:17;;;;;;;3.92;1.50;;;;;;;17.47;90.99;101366.44;4970278;28;20178;-50
2022/08/05 07:23:43;;;;;;;6.32;1.80;;;;;;;17.05;90.55;101362.56;4970716;28;20178;-50
2022/08/05 07:26:08;;;;;;;5.38;1.92;;;;;;;17.20;91.00;101372.50;4971542;28;20182;-49
2022/08/05 07:28:34;;;;;;;6.07;1.70;;;;;;;17.24;90.92;101365.97;4971021;28;20181;-48
2022/08/05 07:30:59;;;;;;;6.22;1.73;;;;;;;17.31;90.71;101369.19;4971617;28;20232;-48
2022/08/05 07:33:25;;;;;;;6.15;1.40;;;;;;;17.39;90.50;101366.91;4971127;28;20189;-50
2022/08/05 07:35:51;;;;;;;7.25;1.60;;;;;;;17.57;90.08;101366.81;4976194;28;20209;-51
2022/08/05 07:38:17;;;;;;;7.60;2.08;;;;;;;17.66;89.20;101366.25;4976465;28;20290;-46
2022/08/05 07:40:43;;;;;;;3.90;1.67;;;;;;;17.64;88.47;101360.03;4975246;28;20190;-48
2022/08/05 07:43:09;;;;;;;6.00;1.63;;;;;;;17.76;88.35;101348.47;4974513;28;20201;-48
2022/08/05 07:45:35;;;;;;;7.20;1.98;;;;;;;17.75;88.16;101351.28;4975575;28;20552;-48
2022/08/05 07:48:01;;;;;;;5.82;1.63;;;;;;;17.83;88.20;101352.59;4975174;28;20174;-47
2022/08/05 07:50:27;;;;;;;6.85;1.80;;;;;;;17.70;87.37;101368.69;4975036;28;20193;-48
2022/08/05 07:52:52;;;;;;;5.55;1.73;;;;;;;17.63;87.10;101372.72;4975534;28;20209;-47
2022/08/05 07:55:18;;;;;;;5.40;1.40;;;;;;;17.56;87.27;101367.75;4975352;28;20548;-48
2022/08/05 07:57:43;;;;;;;5.45;1.38;;;;;;;17.52;87.40;101369.78;4975065;28;20272;-48
2022/08/05 08:00:10;;;;;;;3.95;1.40;;;;;;;17.25;87.83;101378.56;4975485;28;20181;-47
2022/08/05 08:02:38;;;;;;;9.35;1.70;;;;;;;17.12;88.71;101371.19;4975234;28;20213;-48
2022/08/05 08:05:04;;;;;;;7.82;1.40;;;;;;;17.37;89.23;101362.56;4975109;28;20562;-47
2022/08/05 08:07:30;;;;;;;7.40;1.60;;;;;;;17.48;88.71;101366.38;4975480;28;20178;-48
2022/08/05 08:09:55;;;;;;;5.50;1.63;;;;;;;17.55;87.87;101361.47;4975025;28;20185;-47
2022/08/05 08:12:22;;;;;;;4.03;1.35;;;;;;;17.53;87.17;101373.34;4973686;28;20639;-47
2022/08/05 08:14:47;;;;;;;9.68;2.10;;;;;;;17.59;86.65;101367.59;4974578;28;20189;-48
2022/08/05 08:17:13;;;;;;;6.88;1.40;;;;;;;17.62;86.22;101359.25;4975047;28;20632;-47
2022/08/05 08:19:40;;;;;;;5.65;1.50;;;;;;;17.62;86.84;101371.00;4974927;28;20178;-48
2022/08/05 08:22:06;;;;;;;3.83;1.67;;;;;;;17.28;86.73;101381.06;4973892;28;20293;-48
2022/08/05 08:24:33;;;;;;;7.97;1.35;;;;;;;17.19;87.54;101388.88;4974932;28;20186;-47
2022/08/05 08:26:58;;;;;;;5.45;1.52;;;;;;;16.96;87.62;101390.16;4974130;28;20704;-48
2022/08/05 08:29:24;;;;;;;4.10;1.27;;;;;;;17.08;87.70;101378.66;4973840;28;20217;-47
2022/08/05 08:31:50;;;;;;;5.38;1.27;;;;;;;17.00;87.33;101375.50;4973373;28;20280;-49
2022/08/05 08:34:18;;;;;;;4.00;1.30;;;;;;;17.03;87.45;101381.63;4973227;28;20212;-48
2022/08/05 08:36:44;;;;;;;4.75;1.50;;;;;;;17.29;87.20;101365.69;4973608;28;20213;-48
2022/08/05 08:39:09;;;;;;;6.22;1.50;;;;;;;17.60;86.47;101367.50;4972137;28;20190;-48
2022/08/05 08:41:37;;;;;;;5.25;1.48;;;;;;;17.28;86.40;101348.56;4973429;28;20238;-46
2022/08/05 08:44:06;;;;;;;4.55;1.25;;;;;;;17.10;85.29;101346.94;4973040;28;20182;-47
2022/08/05 08:46:32;;;;;;;3.10;1.23;;;;;;;17.06;84.91;101334.53;4973331;28;20162;-48
2022/08/05 08:48:58;;;;;;;3.03;1.08;;;;;;;17.13;84.45;101335.94;4973316;28;20550;-47
2022/08/05 08:51:28;;;;;;;8.45;1.40;;;;;;;17.15;84.03;101349.38;4973607;28;20197;-47
2022/08/05 08:53:54;;;;;;;2.78;0.95;;;;;;;17.12;83.86;101347.72;4972600;28;20178;-47
2022/08/05 08:56:20;;;;;;;4.35;1.10;;;;;;;17.13;83.67;101348.59;4973028;28;20253;-49
2022/08/05 08:58:46;;;;;;;4.28;1.23;;;;;;;17.22;83.92;101354.34;4973702;28;20245;-44
2022/08/05 09:01:12;;;;;;;3.30;1.13;;;;;;;17.18;84.72;101362.75;4973106;28;20163;-43
2022/08/05 09:03:39;;;;;;;2.70;1.30;;;;;;;17.20;85.37;101364.38;4972931;28;20198;-42
2022/08/05 09:06:05;;;;;;;3.38;1.40;;;;;;;17.19;85.22;101376.19;4973281;28;20190;-42
2022/08/05 09:08:30;;;;;;;3.90;1.23;;;;;;;16.94;85.53;101381.25;4973054;28;20249;-42
2022/08/05 09:10:56;;;;;;;3.97;1.33;;;;;;;16.99;86.79;101384.56;4972905;28;20634;-40
2022/08/05 09:13:22;;;;;;;5.20;1.60;;;;;;;17.36;86.84;101382.47;4972169;28;20202;-43
2022/08/05 09:15:48;;;;;;;2.53;1.10;;;;;;;17.37;85.48;101378.81;4972793;28;20189;-43
2022/08/05 09:18:13;;;;;;;3.80;1.15;;;;;;;17.24;84.10;101386.75;4972366;28;20213;-43
2022/08/05 09:20:43;;;;;;;4.18;1.67;;;;;;;17.19;84.12;101364.50;4972327;28;20190;-43
2022/08/05 09:23:10;;;;;;;4.40;1.45;;;;;;;17.38;84.18;101367.00;4971859;28;20210;-42
2022/08/05 09:25:42;;;;;;;7.07;1.55;;;;;;;17.18;83.96;101362.75;4972238;28;20174;-41
2022/08/05 09:28:12;;;;;;;5.47;1.20;;;;;;;17.18;84.35;101358.19;4929727;28;1239083;-44
2022/08/05 09:30:42;;;;;;;2.92;0.98;;;;;;;17.26;84.00;101374.00;4973386;28;20229;-41
2022/08/05 09:33:07;;;;;;;3.55;1.20;;;;;;;17.16;83.88;101370.06;4973076;28;20580;-42
2022/08/05 09:35:33;;;;;;;4.97;1.05;;;;;;;17.26;84.43;101374.00;4971822;28;20172;-43
2022/08/05 09:37:59;;;;;;;6.38;1.50;;;;;;;17.30;84.04;101364.75;4973359;28;20232;-42
2022/08/05 09:40:39;;;;;;;2.50;0.80;;;;;;;17.19;83.59;101362.66;4973190;28;20184;-43
2022/08/05 09:43:06;;;;;;;5.25;1.25;;;;;;;17.26;83.55;101371.31;4972990;28;20206;-41
2022/08/05 09:45:41;;;;;;;3.10;1.20;;;;;;;17.27;83.42;101373.94;4973696;28;20193;-43
2022/08/05 09:48:28;;;;;;;7.93;1.40;;;;;;;17.06;83.71;101383.28;4971332;28;20241;-43
2022/08/05 09:50:59;;;;;;;1.70;0.80;;;;;;;17.06;83.36;101369.75;4973280;28;20570;-43
2022/08/05 09:53:25;;;;;;;1.65;0.80;;;;;;;17.60;82.81;101359.38;4972113;28;20300;-43
2022/08/05 09:55:56;;;;;;;3.95;1.17;;;;;;;17.88;81.42;101360.44;4973109;28;20166;-42
2022/08/05 09:58:22;;;;;;;7.47;1.45;;;;;;;17.63;80.91;101358.31;4971800;28;20190;-43
2022/08/05 10:00:53;;;;;;;1.38;0.90;;;;;;;17.64;81.54;101355.50;4972574;28;20209;-43
2022/08/05 10:03:19;;;;;;;5.85;1.02;;;;;;;17.82;81.83;101360.81;4972405;28;20609;-43
2022/08/05 10:05:45;;;;;;;4.50;1.20;;;;;;;17.48;81.26;101360.94;4972710;28;20181;-43
2022/08/05 10:08:11;;;;;;;4.97;1.42;;;;;;;17.52;82.14;101374.34;4971419;28;20182;-44
2022/08/05 10:10:45;;;;;;;2.90;0.90;;;;;;;17.57;82.62;101381.22;4972692;28;20208;-44
2022/08/05 10:13:11;;;;;;;3.60;1.20;;;;;;;17.48;82.01;101369.06;4972004;28;20240;-42
2022/08/05 10:15:40;;;;;;;4.15;1.17;;;;;;;17.61;80.90;101374.66;4972671;28;20262;-44
2022/08/05 10:18:15;;;;;;;2.92;1.23;;;;;;;17.74;80.00;101372.09;4972209;28;20209;-45
2022/08/05 10:21:03;;;;;;;3.40;1.10;;;;;;;17.55;80.37;101385.84;4972720;28;20213;-45
2022/08/05 10:23:37;;;;;;;5.22;1.30;;;;;;;17.81;81.03;101392.44;4971750;28;20587;-45
2022/08/05 10:26:09;;;;;;;2.53;1.00;;;;;;;18.06;79.40;101396.41;4972310;28;20185;-45
2022/08/05 10:28:35;;;;;;;5.00;1.08;;;;;;;18.10;78.49;101397.97;4972174;28;20170;-44
2022/08/05 10:31:01;;;;;;;3.35;1.08;;;;;;;18.20;78.24;101401.88;4972139;28;20181;-41
2022/08/05 10:33:30;;;;;;;2.95;1.15;;;;;;;18.31;77.76;101387.66;4971737;28;20158;-45
2022/08/05 10:35:57;;;;;;;4.90;1.08;;;;;;;18.42;77.18;101401.44;4972526;28;20214;-44
2022/08/05 10:38:25;;;;;;;3.90;1.15;;;;;;;18.52;76.64;101405.31;4972072;28;20198;-44
2022/08/05 10:41:02;;;;;;;2.10;0.70;;;;;;;18.23;77.20;101392.69;4971887;28;20249;-43
2022/08/05 10:43:45;;;;;;;3.40;1.10;;;;;;;18.48;77.52;101403.75;4971624;28;20182;-43
2022/08/05 10:46:13;;;;;;;3.67;0.90;;;;;;;18.51;77.38;101399.97;4972028;28;20198;-44
2022/08/05 10:48:41;;;;;;;3.05;1.02;;;;;;;18.59;78.51;101396.81;4970655;28;20669;-43
2022/08/05 10:51:10;;;;;;;8.55;1.13;;;;;;;18.32;79.26;101387.56;4971871;28;20186;-43
2022/08/05 10:53:48;;;;;;;3.90;0.90;;;;;;;18.51;79.35;101386.41;4971425;28;20798;-42
2022/08/05 10:56:16;;;;;;;4.40;1.02;;;;;;;18.46;78.26;101396.69;4971698;28;20192;-42
2022/08/05 10:58:53;;;;;;;5.25;1.10;;;;;;;18.53;78.20;101400.75;4971970;28;20653;-41
2022/08/05 11:01:38;;;;;;;2.17;0.80;;;;;;;18.16;77.54;101404.88;4971854;28;20634;-44
2022/08/05 11:04:15;;;;;;;2.78;0.80;;;;;;;18.11;78.11;101408.75;4971186;28;20186;-44
2022/08/05 11:07:03;;;;;;;2.22;0.82;;;;;;;18.27;77.69;101419.50;4971850;28;20166;-44
2022/08/05 11:09:50;;;;;;;3.45;1.10;;;;;;;18.34;77.58;101420.00;4971161;28;20182;-44
2022/08/05 11:12:25;;;;;;;1.95;0.75;;;;;;;18.34;78.01;101430.88;4971749;28;20233;-42
2022/08/05 11:15:07;;;;;;;4.13;0.80;;;;;;;18.04;78.23;101429.06;4971087;28;20219;-43
2022/08/05 11:17:37;;;;;;;3.58;1.15;;;;;;;18.10;78.04;101423.28;4971615;28;20264;-42
2022/08/05 11:20:07;;;;;;;3.00;1.20;;;;;;;18.18;78.75;101425.50;4971302;28;20685;-43
2022/08/05 11:22:47;;;;;;;3.92;0.82;;;;;;;18.16;78.03;101415.72;4971771;28;20259;-44
2022/08/05 11:25:34;;;;;;;4.97;1.17;;;;;;;18.02;78.05;101413.84;4970918;28;20236;-40
2022/08/05 11:28:08;;;;;;;1.90;1.02;;;;;;;17.85;78.52;101428.41;4973422;28;20599;-42
2022/08/05 11:30:56;;;;;;;2.72;1.00;;;;;;;18.09;79.66;101432.38;4986894;28;20185;-42
2022/08/05 11:33:35;;;;;;;4.60;1.33;;;;;;;17.82;81.71;101409.59;4974026;28;20637;-47
2022/08/05 11:36:07;;;;;;;6.50;1.30;;;;;;;17.71;84.11;101431.91;4970106;28;20522;-49